Paradise Valley, Nevada Weather observations

Data are for 10 minute period ending at time listed.
 Day   Time   Solar   Ave.   Ave.  Ave.  Vector  Max.   Baro.   Total    
  of    of     Rad.   Air    Rel.  Wind   Wind   Wind  Press.  Precip.   
Year   Day            Temp.  Hum.  Speed  Dir.   Gust                    
2017   (PST)  Kw/m2    F      %     mph   deg.    mph    mb.     in.     
-------------------------------------------------------------------------
  23    9:00   0.20   29.7    84   15.0   222    27.4   853.0    0.00 
  23    9:10   0.21   29.4    84   13.9   230    19.9   853.3    0.00 
  23    9:20   0.24   29.0    84   15.7   236    22.4   853.4    0.00 
  23    9:30   0.35   29.3    83   14.8   236    23.0   853.5    0.00 
  23    9:40   0.29   29.2    82   17.4   237    21.8   853.4    0.00 
  23    9:50   0.27   29.4    79   17.3   241    21.5   853.4    0.00 
  23   10:00   0.27   29.8    77   16.4   241    21.5   853.6    0.00 
  23   10:10   0.36   30.2    75   13.2   242    20.2   853.7    0.00 
  23   10:20   0.36   30.7    74   10.3   248    15.6   853.8    0.00 
  23   10:30   0.37   30.6    74   13.3   240    17.5   853.9    0.00 
  23   10:40   0.35   30.2    76   11.5   234    17.0   854.0    0.00 
  23   10:50   0.31   30.2    76   12.1   230    17.4   853.9    0.00 
  23   11:00   0.31   29.6    79   12.7   223    17.0   853.9    0.00 
  23   11:10   0.33   29.7    80   14.6   226    20.2   853.9    0.00 
  23   11:20   0.34   29.8    80   15.4   229    20.5   853.8    0.00 
  23   11:30   0.36   30.1    79   13.9   232    19.1   853.8    0.00 
  23   11:40   0.54   30.2    78   14.3   234    20.1   853.7    0.00 
  23   11:50   0.71   30.7    77   14.7   229    18.7   853.7    0.00 
  23   12:00   0.66   31.3    75    9.8   240    14.2   853.7    0.01 
  23   12:10   0.69   31.5    74   12.8   230    16.5   853.6    0.00 
  23   12:20   0.65   31.4    75   13.0   238    17.0   853.6    0.00 
  23   12:30   0.63   31.8    73   13.4   238    18.3   853.6    0.00 
  23   12:40   0.54   30.9    78   14.0   236    18.1   853.6    0.00 
  23   12:50   0.63   31.3    77   11.6   236    17.0   853.6    0.00 
  23   13:00   0.66   31.8    75   13.1   241    19.3   853.7    0.00 
  23   13:10   0.66   31.5    75   14.8   242    21.8   853.6    0.00 
  23   13:20   0.74   31.9    76   13.0   242    18.6   853.7    0.00 
  23   13:30   0.47   31.7    76   14.2   242    18.6   853.7    0.00 
  23   13:40   0.27   31.2    76   12.9   233    16.1   853.7    0.00 
  23   13:50   0.28   31.3    77   12.9   233    17.0   853.8    0.00 
  23   14:00   0.25   31.7    74   12.4   239    18.6   853.9    0.00 
  23   14:10   0.24   31.6    73   10.8   241    16.8   854.1    0.00 
  23   14:20   0.34   32.3    70    8.8   238    12.5   854.2    0.00 
  23   14:30   0.31   32.5    69    9.8   246    13.0   854.3    0.00 
  23   14:40   0.24   31.9    72   12.4   244    17.0   854.3    0.00 
  23   14:50   0.24   31.5    75   11.4   242    16.4   854.3    0.00 
  23   15:00   0.31   31.7    70    5.0   268     8.8   854.6    0.00 
  23   15:10   0.35   32.4    71    6.1   249    11.4   854.7    0.00 
  23   15:20   0.29   32.9    68    5.9   271    11.7   854.8    0.00 
  23   15:30   0.16   32.3    72    7.7   265    11.2   854.8    0.00 
  23   15:40   0.10   31.3    70    6.5   262     9.7   854.9    0.00 
  23   15:50   0.06   30.8    71    4.4   211     6.4   855.0    0.00 
  23   16:00   0.09   30.8    71    2.6   184     4.1   855.0    0.00 
  23   16:10   0.06   28.6    73    0.8    38     2.9   855.1    0.00 
  23   16:20   0.04   29.0    72    1.6    70     3.7   855.2    0.00 
  23   16:30   0.02   29.3    72    3.1   107     6.3   855.2    0.00 
  23   16:40   0.02   28.9    70    0.8   169     2.6   855.2    0.00 
  23   16:50   0.01   28.6    68    1.9   194     4.4   855.2    0.00 
  23   17:00   0.01   27.7    68    3.8   286     6.6   855.2    0.00 
  23   17:10   0.00   26.2    71    8.1   291    10.1   855.2    0.00 
  23   17:20   0.00   26.5    71    9.5   283    11.8   855.2    0.00 
  23   17:30   0.00   26.9    71   10.4   278    11.6   855.2    0.00 
  23   17:40   0.00   27.4    70    9.6   279    11.6   855.3    0.00 
  23   17:50   0.00   27.6    70   10.3   290    13.4   855.4    0.00 
  23   18:00   0.00   28.4    69   11.5   282    16.3   855.4    0.00 
  23   18:10   0.00   26.5    72    9.2   284    10.9   855.6    0.00 
  23   18:20   0.00   25.9    71    9.0   288    12.1   855.7    0.00 
  23   18:30   0.00   25.1    71    8.4   297     9.6   855.7    0.00 
  23   18:40   0.00   22.7    73    6.4   298     7.5   855.8    0.00 
  23   18:50   0.00   22.6    74    7.6   306     8.5   855.8    0.00 
  23   19:00   0.00   23.0    72    8.1   302     9.6   855.8    0.00 
  23   19:10   0.00   23.5    70    7.7   299     9.2   855.8    0.00 
  23   19:20   0.00   19.1    73    4.3   353     7.0   855.8    0.00 
  23   19:30   0.00   15.8    78    3.3   359     5.3   855.8    0.00 
  23   19:40   0.00   15.5    82    0.7   106     3.6   855.9    0.00 
  23   19:50   0.00   18.0    81    1.5   137     4.5   856.0    0.00 
  23   20:00   0.00   19.7    78    2.7   176     3.9   856.0    0.00 
  23   20:10   0.00   19.5    76    4.9   182     6.9   856.2    0.00 
  23   20:20   0.00   18.8    84    5.4   187     6.8   856.2    0.00 
  23   20:30   0.00   18.7    80    6.5   211     7.5   856.2    0.00 
  23   20:40   0.00   17.5    79    5.1   246     8.8   856.2    0.00 
  23   20:50   0.00   18.7    76    8.7   228     9.9   856.2    0.00 
  23   21:00   0.00   18.8    74    6.8   230     8.2   856.2    0.00 
  23   21:10   0.00   21.1    73    5.2   232     8.5   856.3    0.00 
  23   21:20   0.00   21.7    78    2.9   209     4.0   856.3    0.00 
  23   21:30   0.00   21.5    74    2.7   262     4.1   856.4    0.00 
  23   21:40   0.00   19.0    72    3.1   292     5.5   856.4    0.00 
  23   21:50   0.00   15.9    75    3.7   341     8.3   856.5    0.00 
  23   22:00   0.00   13.1    90    5.0    82     6.9   856.6    0.00 
  23   22:10   0.00   15.9    94    4.1   117     4.6   856.7    0.00 
  23   22:20   0.00   13.8    89    3.9   218     6.6   856.7    0.00 
  23   22:30   0.00   12.4    92    5.0   253     5.8   856.8    0.00 
  23   22:40   0.00   12.9    91    5.8   256     7.2   856.9    0.00 
  23   22:50   0.00   15.0    88    5.1   250     6.4   856.9    0.00 
  23   23:00   0.00   16.3    85    4.1   248     5.8   856.9    0.00 
  23   23:10   0.00   18.2    78    2.4   234     4.5   856.9    0.00 
  23   23:20   0.00   15.1    79    3.0   127     6.0   856.9    0.00 
  23   23:30   0.00   16.3    81    6.0   166     7.7   856.9    0.00 
  23   23:40   0.00   17.8    80    2.8   219     6.1   856.9    0.00 
  23   23:50   0.00   16.2    79    3.2   142     6.0   857.0    0.00 
  24    0:00   0.00   14.0    83    2.7   123     5.2   857.0    0.00 
  24    0:10   0.00   15.7    84    3.5   175     5.4   857.0    0.00 
  24    0:20   0.00   15.8    83    2.4   240     6.1   857.1    0.00 
  24    0:30   0.00   14.5    80    0.3   342     1.5   857.1    0.00 
  24    0:40   0.00   14.4    84    2.2   250     4.1   857.0    0.00 
  24    0:50   0.00   16.2    82    4.0   222     6.9   857.0    0.00 
  24    1:00   0.00   17.4    79    3.6   245     6.0   857.1    0.00 
  24    1:10   0.00   18.4    80    2.3   248     5.5   857.2    0.00 
  24    1:20   0.00   22.3    73    3.2   240     5.8   857.2    0.00 
  24    1:30   0.00   21.1    68    3.5   171     4.8   857.3    0.00 
  24    1:40   0.00   12.4    82    4.5   121     8.3   857.4    0.00 
  24    1:50   0.00   15.9    87    3.5   126     6.9   857.4    0.00 
  24    2:00   0.00   20.9    77    2.2   195     7.1   857.3    0.00 
  24    2:10   0.00   20.3    72    2.3   326     7.5   857.4    0.00 
  24    2:20   0.00   16.0    81    5.4   132     9.3   857.6    0.00 
  24    2:30   0.00   14.1    83    7.9   127    11.2   857.6    0.00 
  24    2:40   0.00   13.6    90    7.6   134    10.2   857.6    0.00 
  24    2:50   0.00   13.7    90    7.5   113    11.9   857.6    0.00 
  24    3:00   0.00   17.0    88   10.3   132    13.2   857.5    0.00 
  24    3:10   0.00   16.4    86    5.6   102     9.6   857.7    0.00 
  24    3:20   0.00   16.9    83    6.0   112     9.2   857.8    0.00 
  24    3:30   0.00   14.3    88    8.6   122    13.3   857.8    0.00 
  24    3:40   0.00   15.4    88    7.1   125     9.7   857.9    0.00 
  24    3:50   0.00   14.1    88    6.8   124     9.9   857.9    0.00 
  24    4:00   0.00   14.8    89    3.0   230     6.6   858.1    0.00 
  24    4:10   0.00   13.0    87    2.1   170     4.7   858.1    0.00 
  24    4:20   0.00   13.1    90    2.7    96     5.4   858.1    0.00 
  24    4:30   0.00   11.6    90    4.4   219     6.7   858.1    0.00 
  24    4:40   0.00   13.9    93    6.1   164     8.7   858.0    0.00 
  24    4:50   0.00   13.3    91    3.8   215     8.6   858.2    0.00 
  24    5:00   0.00   14.3    91    1.5   210     3.1   858.2    0.00 
  24    5:10   0.00   13.5    88    2.6   244     6.1   858.3    0.00 
  24    5:20   0.00   12.6    86    2.5   282     6.5   858.5    0.00 
  24    5:30   0.00   11.8    87    2.0   312     6.4   858.5    0.00 
  24    5:40   0.00   15.2    87    2.3    13     7.2   858.6    0.00 
  24    5:50   0.00   15.7    84    3.7   118     6.1   858.7    0.00 
  24    6:00   0.00   14.8    87    6.4   152     9.1   858.7    0.00 
  24    6:10   0.00   15.2    86    4.3   162     9.1   858.9    0.00 
  24    6:20   0.00   16.2    86    5.9   126     9.3   858.9    0.00 
  24    6:30   0.00   16.3    87    3.3    51     6.2   859.1    0.00 
  24    6:40   0.00   16.2    85    5.8   115     6.9   859.1    0.00 
  24    6:50   0.00   16.9    88    6.8   122    10.1   859.2    0.00 
  24    7:00   0.00   18.6    88    8.1   120    12.6   859.2    0.00 
  24    7:10   0.00   20.7    86   10.6   111    14.5   859.1    0.00 
  24    7:20   0.01   21.8    82    9.4    95    11.6   859.2    0.00 
  24    7:30   0.01   22.4    81    9.4   100    12.0   859.4    0.00 
  24    7:40   0.02   21.9    82    9.7   112    12.9   859.5    0.00 
  24    7:50   0.03   22.0    79    8.5    94    12.3   859.7    0.00 
  24    8:00   0.06   23.4    78    7.7    91    17.0   859.8    0.00 
  24    8:10   0.08   24.3    76    0.7    70     4.8   860.1    0.00 
  24    8:20   0.10   23.2    76    4.5    97     7.9   860.1    0.00 
  24    8:30   0.12   22.1    82    3.5    99     6.1   860.1    0.00 
  24    8:40   0.14   21.8    82    5.5   133     8.6   860.1    0.00 
  24    8:50   0.16   22.7    81    6.0   147     7.9   860.2    0.00 

Return to Paradise Valley graphs page.


Western Regional Climate Center,wrcc@dri.edu